Time;durP1;ratioP1;P1;durP2;ratioP2;P2;SDS_P1;SDS_P2;PMS_P1;PMS_P2;Temp;Humidity;BMP_temperature;BMP_pressure;BME280_temperature;BME280_humidity;BME280_pressure;Samples;Min_cycle;Max_cycle;Signal;HPM_P1;HPM_P2
2021/07/24 00:01:27;;;;;;;0.80;0.80;;;20.60;99.90;;;;;;5083880;28;20648;-86
2021/07/24 00:03:52;;;;;;;0.87;0.87;;;20.60;99.90;;;;;;5089843;28;20206;-85
2021/07/24 00:06:18;;;;;;;1.87;1.70;;;20.60;99.90;;;;;;5100868;28;20278;-85
2021/07/24 00:08:44;;;;;;;1.80;1.23;;;20.50;99.90;;;;;;5094343;28;20299;-85
2021/07/24 00:11:10;;;;;;;1.67;1.57;;;20.50;99.90;;;;;;5103842;28;20561;-84
2021/07/24 00:13:37;;;;;;;1.17;0.87;;;20.50;99.90;;;;;;5103860;28;20184;-85
2021/07/24 00:16:03;;;;;;;1.47;1.17;;;20.50;99.90;;;;;;5085325;28;20184;-84
2021/07/24 00:18:30;;;;;;;0.93;0.80;;;20.60;99.90;;;;;;5098497;28;20180;-85
2021/07/24 00:20:55;;;;;;;1.60;1.37;;;20.50;99.90;;;;;;5094427;28;20189;-85
2021/07/24 00:23:21;;;;;;;1.03;1.00;;;20.50;99.90;;;;;;5078120;28;20196;-85
2021/07/24 00:25:47;;;;;;;2.83;2.57;;;20.50;99.90;;;;;;5085935;28;20189;-85
2021/07/24 00:28:12;;;;;;;1.60;0.70;;;20.50;99.90;;;;;;5093894;28;20271;-85
2021/07/24 00:30:39;;;;;;;2.47;1.37;;;20.50;99.90;;;;;;5095236;28;20230;-84
2021/07/24 00:33:05;;;;;;;1.50;1.40;;;20.60;99.90;;;;;;5100451;28;20176;-85
2021/07/24 00:35:31;;;;;;;2.40;1.00;;;20.50;99.90;;;;;;5094333;28;20207;-85
2021/07/24 00:37:57;;;;;;;1.03;0.93;;;20.60;99.90;;;;;;5105676;28;20185;-85
2021/07/24 00:40:25;;;;;;;4.27;1.63;;;20.60;99.90;;;;;;5098886;28;20264;-85
2021/07/24 00:42:53;;;;;;;2.00;1.33;;;20.70;99.90;;;;;;5092166;28;20185;-84
2021/07/24 00:45:20;;;;;;;1.30;0.80;;;20.70;99.90;;;;;;5094826;28;20345;-85
2021/07/24 00:47:52;;;;;;;0.47;0.47;;;20.80;99.90;;;;;;5113463;28;20196;-85
2021/07/24 00:50:18;;;;;;;1.03;0.93;;;20.80;99.90;;;;;;5090052;28;20731;-85
2021/07/24 00:52:44;;;;;;;0.83;0.83;;;20.80;99.90;;;;;;5086045;28;20184;-85
2021/07/24 00:55:12;;;;;;;0.63;0.63;;;20.80;99.90;;;;;;5094629;28;20343;-85
2021/07/24 00:57:44;;;;;;;1.13;0.80;;;20.80;99.90;;;;;;5089208;28;20325;-85
2021/07/24 01:00:11;;;;;;;0.83;0.83;;;20.80;99.90;;;;;;5090272;28;20205;-85
2021/07/24 01:02:37;;;;;;;0.80;0.80;;;20.80;99.90;;;;;;5092260;28;20188;-85
2021/07/24 01:05:05;;;;;;;0.70;0.70;;;20.80;99.90;;;;;;5086763;28;20297;-85
2021/07/24 01:07:38;;;;;;;0.80;0.80;;;20.80;99.90;;;;;;5090376;28;20188;-85
2021/07/24 01:10:04;;;;;;;0.70;0.70;;;20.80;99.90;;;;;;5102263;28;20201;-85
2021/07/24 01:12:32;;;;;;;2.00;0.90;;;20.80;99.90;;;;;;5080568;28;20195;-85
2021/07/24 01:14:57;;;;;;;0.50;0.50;;;20.70;99.90;;;;;;5091586;28;20199;-84
2021/07/24 01:17:23;;;;;;;1.17;1.07;;;20.80;99.90;;;;;;5096617;28;20196;-84
2021/07/24 01:19:49;;;;;;;1.10;1.00;;;20.80;99.90;;;;;;5089917;28;20262;-85
2021/07/24 01:22:14;;;;;;;1.50;1.40;;;20.80;99.90;;;;;;5086765;28;20184;-85
2021/07/24 01:24:40;;;;;;;1.67;1.13;;;20.80;99.90;;;;;;5103754;28;20209;-85
2021/07/24 01:27:09;;;;;;;2.00;0.80;;;20.80;99.90;;;;;;5097768;28;20689;-84
2021/07/24 01:29:36;;;;;;;1.60;1.17;;;20.70;99.90;;;;;;5089219;28;20211;-85
2021/07/24 01:32:02;;;;;;;1.57;1.03;;;20.60;99.90;;;;;;5104066;28;20184;-85
2021/07/24 01:34:28;;;;;;;1.17;0.97;;;20.50;99.90;;;;;;5106843;28;20275;-85
2021/07/24 01:36:53;;;;;;;1.20;1.10;;;20.20;99.90;;;;;;5098932;28;20672;-85
2021/07/24 01:39:19;;;;;;;1.10;0.83;;;20.10;99.90;;;;;;5090804;28;20240;-85
2021/07/24 01:41:45;;;;;;;1.07;0.90;;;20.10;99.90;;;;;;5087834;28;20225;-85
2021/07/24 01:44:12;;;;;;;1.67;0.93;;;20.10;99.90;;;;;;5089878;28;20294;-84
2021/07/24 01:46:37;;;;;;;0.60;0.60;;;20.20;99.90;;;;;;5101889;28;20692;-84
2021/07/24 01:54:32;;;;;;;0.50;0.50;;;20.20;99.90;;;;;;5091785;28;20199;-85
2021/07/24 01:57:02;;;;;;;0.60;0.40;;;20.20;99.90;;;;;;5089843;28;20252;-84
2021/07/24 01:59:33;;;;;;;1.00;1.00;;;20.20;99.90;;;;;;5086375;28;20223;-84
2021/07/24 02:02:00;;;;;;;0.60;0.60;;;20.10;99.90;;;;;;5084704;28;20187;-83
2021/07/24 02:04:29;;;;;;;1.90;1.17;;;20.00;99.90;;;;;;5098534;28;20675;-85
2021/07/24 02:06:55;;;;;;;1.23;1.13;;;19.90;99.90;;;;;;5097627;28;20271;-85
2021/07/24 02:09:21;;;;;;;1.37;1.27;;;19.60;99.90;;;;;;5086735;28;20299;-84
2021/07/24 02:11:47;;;;;;;2.60;1.10;;;19.30;99.90;;;;;;5100441;28;20695;-85
2021/07/24 02:14:12;;;;;;;1.40;1.03;;;19.10;99.90;;;;;;5101873;28;20189;-85
2021/07/24 02:16:40;;;;;;;1.23;1.17;;;19.00;99.90;;;;;;5091030;28;20188;-84
2021/07/24 02:19:06;;;;;;;1.43;1.30;;;18.80;99.90;;;;;;5088689;28;20229;-85
2021/07/24 02:21:32;;;;;;;0.67;0.67;;;18.80;99.90;;;;;;5077960;28;20585;-84
2021/07/24 02:23:58;;;;;;;0.70;0.70;;;18.90;99.90;;;;;;5094858;28;20216;-85
2021/07/24 02:26:24;;;;;;;2.97;1.90;;;19.00;99.90;;;;;;5086970;28;20194;-85
2021/07/24 02:28:50;;;;;;;2.40;1.27;;;19.00;99.90;;;;;;5089726;28;20238;-85
2021/07/24 02:31:15;;;;;;;4.50;1.63;;;19.00;99.90;;;;;;5090680;28;20192;-84
2021/07/24 02:33:41;;;;;;;0.63;0.63;;;19.00;99.90;;;;;;5092540;28;20196;-84
2021/07/24 02:36:06;;;;;;;4.20;1.37;;;19.00;99.90;;;;;;5104884;28;20184;-85
2021/07/24 02:38:32;;;;;;;1.70;0.90;;;19.00;99.90;;;;;;5098658;28;20281;-85
2021/07/24 02:40:58;;;;;;;2.80;1.63;;;19.00;99.90;;;;;;5104599;28;20207;-84
2021/07/24 02:43:25;;;;;;;3.00;1.00;;;19.00;99.90;;;;;;5092702;28;20206;-85
2021/07/24 02:45:51;;;;;;;4.50;1.00;;;19.00;99.90;;;;;;5105975;28;20184;-85
2021/07/24 02:48:17;;;;;;;3.03;1.27;;;19.00;99.90;;;;;;5087719;28;20773;-85
2021/07/24 02:50:42;;;;;;;3.47;1.87;;;19.10;99.90;;;;;;5107186;28;20701;-85
2021/07/24 02:53:08;;;;;;;1.40;1.17;;;19.00;99.90;;;;;;5105207;28;20220;-85
2021/07/24 02:55:34;;;;;;;1.80;0.73;;;19.10;99.90;;;;;;5090351;28;20180;-85
2021/07/24 02:57:59;;;;;;;0.97;0.97;;;19.10;99.90;;;;;;5089327;28;20194;-84
2021/07/24 03:00:25;;;;;;;2.17;1.40;;;19.20;99.90;;;;;;5105040;28;20296;-85
2021/07/24 03:02:50;;;;;;;1.47;1.37;;;19.30;99.90;;;;;;5093357;28;20200;-85
2021/07/24 03:05:16;;;;;;;0.63;0.47;;;19.40;99.90;;;;;;5094732;28;20246;-85
2021/07/24 03:07:42;;;;;;;1.00;1.00;;;19.40;99.90;;;;;;5095315;28;20280;-85
2021/07/24 03:10:08;;;;;;;1.43;0.97;;;19.50;99.90;;;;;;5088743;28;20208;-85
2021/07/24 03:12:33;;;;;;;1.23;1.13;;;19.40;99.90;;;;;;5100077;28;20184;-85
2021/07/24 03:14:59;;;;;;;1.40;1.20;;;19.40;99.90;;;;;;5100779;28;20233;-85
2021/07/24 03:17:26;;;;;;;0.80;0.80;;;19.40;99.90;;;;;;5086614;28;20284;-85
2021/07/24 03:19:52;;;;;;;1.03;0.80;;;19.50;99.90;;;;;;5102385;28;20208;-84
2021/07/24 03:22:18;;;;;;;2.43;1.20;;;19.60;99.90;;;;;;5087847;28;20318;-84
2021/07/24 03:24:43;;;;;;;1.20;0.80;;;19.60;99.90;;;;;;5101975;28;20581;-84
2021/07/24 03:27:09;;;;;;;1.03;0.80;;;19.80;99.90;;;;;;5088614;28;20184;-85
2021/07/24 03:29:34;;;;;;;0.80;0.80;;;19.80;99.90;;;;;;5090932;28;20747;-85
2021/07/24 03:32:00;;;;;;;0.87;0.70;;;19.90;99.90;;;;;;5102661;28;20187;-85
2021/07/24 03:34:25;;;;;;;0.60;0.60;;;20.00;99.90;;;;;;5098236;28;20241;-85
2021/07/24 03:36:51;;;;;;;2.33;1.07;;;20.00;99.90;;;;;;5092502;28;20668;-85
2021/07/24 03:39:16;;;;;;;1.90;0.90;;;20.10;99.90;;;;;;5086516;28;20590;-86
2021/07/24 03:41:42;;;;;;;0.83;0.70;;;20.20;99.90;;;;;;5088898;28;20188;-85
2021/07/24 03:44:08;;;;;;;1.37;0.70;;;20.20;99.90;;;;;;5105955;28;20220;-85
2021/07/24 03:46:33;;;;;;;2.83;1.23;;;20.30;99.90;;;;;;5087136;28;20195;-84
2021/07/24 03:48:59;;;;;;;1.23;0.53;;;20.30;99.90;;;;;;5104013;28;20226;-84
2021/07/24 03:51:25;;;;;;;0.33;0.33;;;20.30;99.90;;;;;;5083048;28;20563;-84
2021/07/24 03:53:50;;;;;;;0.53;0.53;;;20.40;99.90;;;;;;5080803;28;20202;-84
2021/07/24 03:56:20;;;;;;;0.60;0.60;;;20.50;99.90;;;;;;5085878;28;20188;-84
2021/07/24 03:58:49;;;;;;;0.90;0.80;;;20.50;99.90;;;;;;5076648;28;20362;-85
2021/07/24 04:01:15;;;;;;;1.73;1.37;;;20.70;99.90;;;;;;5104240;28;20606;-85
2021/07/24 04:03:40;;;;;;;0.97;0.93;;;20.90;99.90;;;;;;5086001;28;20295;-85
2021/07/24 04:06:08;;;;;;;3.80;1.20;;;21.20;99.90;;;;;;5106338;28;20310;-85
2021/07/24 04:08:34;;;;;;;1.27;1.17;;;21.60;99.90;;;;;;5097488;28;20285;-85
2021/07/24 04:11:02;;;;;;;0.90;0.87;;;21.80;99.90;;;;;;5077918;28;20184;-84
2021/07/24 04:13:27;;;;;;;2.00;1.57;;;22.00;99.90;;;;;;5089192;28;20200;-85
2021/07/24 04:15:53;;;;;;;2.03;1.33;;;22.10;99.90;;;;;;5081847;28;20189;-84
2021/07/24 04:18:24;;;;;;;2.13;2.03;;;22.20;99.90;;;;;;5091119;28;20267;-84
2021/07/24 04:20:50;;;;;;;3.23;1.73;;;22.10;99.90;;;;;;5087546;28;20185;-84
2021/07/24 04:23:15;;;;;;;2.10;1.80;;;21.50;99.90;;;;;;5093123;28;20188;-84
2021/07/24 04:25:41;;;;;;;1.13;0.97;;;21.20;99.90;;;;;;5090975;28;20191;-84
2021/07/24 04:28:06;;;;;;;3.83;1.70;;;20.90;99.90;;;;;;5096357;28;20180;-84
2021/07/24 04:30:33;;;;;;;1.90;1.17;;;20.70;99.90;;;;;;5082975;28;20223;-84
2021/07/24 04:32:59;;;;;;;1.03;0.93;;;20.70;99.90;;;;;;5099937;28;20180;-85
2021/07/24 04:35:24;;;;;;;3.93;1.63;;;20.70;99.90;;;;;;5080232;28;20198;-84
2021/07/24 04:37:50;;;;;;;1.53;0.90;;;20.70;99.90;;;;;;5080394;28;20287;-84
2021/07/24 04:40:15;;;;;;;1.10;1.00;;;20.60;99.90;;;;;;5094314;28;20213;-84
2021/07/24 04:42:41;;;;;;;0.83;0.83;;;20.30;99.90;;;;;;5088324;28;20180;-85
2021/07/24 04:45:07;;;;;;;1.03;0.93;;;19.90;99.90;;;;;;5106290;28;20208;-84
2021/07/24 04:47:33;;;;;;;1.67;1.27;;;19.90;99.90;;;;;;5082827;28;20223;-84
2021/07/24 04:49:58;;;;;;;2.20;1.20;;;20.20;99.90;;;;;;5102075;28;20233;-85
2021/07/24 04:52:24;;;;;;;3.57;0.97;;;20.20;99.90;;;;;;5094432;28;20219;-84
2021/07/24 04:54:50;;;;;;;1.13;1.00;;;20.10;99.90;;;;;;5079905;28;20188;-85
2021/07/24 04:57:18;;;;;;;1.40;1.17;;;20.00;99.90;;;;;;5090437;28;20195;-85
2021/07/24 04:59:47;;;;;;;5.47;2.13;;;19.80;99.90;;;;;;5094088;28;20216;-86
2021/07/24 05:02:18;;;;;;;1.50;1.30;;;19.70;99.90;;;;;;5097662;28;20195;-85
2021/07/24 05:04:45;;;;;;;1.40;1.30;;;19.70;99.90;;;;;;5085794;28;20212;-85
2021/07/24 05:07:19;;;;;;;1.23;1.13;;;19.60;99.90;;;;;;5109879;28;20652;-86
2021/07/24 05:09:45;;;;;;;1.33;1.23;;;19.50;99.90;;;;;;5078911;28;20208;-85
2021/07/24 05:12:10;;;;;;;1.23;0.70;;;19.70;99.90;;;;;;5089805;28;20299;-84
2021/07/24 05:14:36;;;;;;;1.40;1.00;;;19.90;99.90;;;;;;5090998;28;20268;-84
2021/07/24 05:17:06;;;;;;;1.00;0.93;;;20.10;99.90;;;;;;5087730;28;20209;-84
2021/07/24 05:19:39;;;;;;;1.60;1.10;;;20.40;99.90;;;;;;5094380;28;20291;-84
2021/07/24 05:22:05;;;;;;;1.60;1.00;;;20.60;99.90;;;;;;5081217;28;20188;-87
2021/07/24 05:24:35;;;;;;;1.50;0.73;;;20.70;99.90;;;;;;5085398;28;20244;-86
2021/07/24 05:27:01;;;;;;;1.37;1.10;;;21.00;99.90;;;;;;5079685;28;20223;-84
2021/07/24 05:29:27;;;;;;;0.83;0.63;;;21.30;99.90;;;;;;5089687;28;20204;-84
2021/07/24 05:31:53;;;;;;;0.57;0.57;;;21.50;99.90;;;;;;5090170;28;20271;-84
2021/07/24 05:34:18;;;;;;;0.60;0.60;;;21.80;99.90;;;;;;5082663;28;20660;-84
2021/07/24 05:36:44;;;;;;;1.63;1.23;;;22.00;99.90;;;;;;5080943;28;20192;-82
2021/07/24 05:39:10;;;;;;;2.63;1.70;;;22.20;99.90;;;;;;5078222;28;20297;-82
2021/07/24 05:41:35;;;;;;;1.63;1.43;;;22.20;99.90;;;;;;5091470;28;20189;-82
2021/07/24 05:44:01;;;;;;;2.53;1.33;;;22.30;99.90;;;;;;5085257;28;20207;-81
2021/07/24 05:46:26;;;;;;;1.23;1.03;;;22.40;99.90;;;;;;5098576;28;20192;-82
2021/07/24 05:48:52;;;;;;;0.93;0.83;;;22.20;99.90;;;;;;5087156;28;20196;-84
2021/07/24 05:51:18;;;;;;;1.00;0.93;;;22.40;99.90;;;;;;5082020;28;20186;-83
2021/07/24 05:53:43;;;;;;;0.87;0.87;;;22.60;99.90;;;;;;5090422;28;20188;-82
2021/07/24 05:56:09;;;;;;;0.73;0.73;;;23.00;99.90;;;;;;5092993;28;20185;-83
2021/07/24 05:58:34;;;;;;;2.00;1.37;;;23.30;99.90;;;;;;5078410;28;20295;-83
2021/07/24 06:01:00;;;;;;;1.70;0.87;;;23.50;99.90;;;;;;5096990;28;20208;-83
2021/07/24 06:03:25;;;;;;;0.77;0.77;;;23.70;99.90;;;;;;5087946;28;20191;-83
2021/07/24 06:05:52;;;;;;;1.93;1.40;;;23.80;99.90;;;;;;5078529;28;20187;-83
2021/07/24 06:08:18;;;;;;;3.03;1.43;;;23.70;99.90;;;;;;5093168;28;20557;-83
2021/07/24 06:10:43;;;;;;;2.57;1.77;;;23.30;99.90;;;;;;5076489;28;20185;-82
2021/07/24 06:13:10;;;;;;;1.10;0.80;;;22.40;99.90;;;;;;5084731;28;20180;-83
2021/07/24 06:15:42;;;;;;;0.97;0.93;;;22.40;99.90;;;;;;5103573;28;20600;-83
2021/07/24 06:18:08;;;;;;;2.03;1.87;;;22.40;99.90;;;;;;5085513;28;20184;-83
2021/07/24 06:20:37;;;;;;;1.53;1.40;;;22.40;99.90;;;;;;5088164;28;20204;-83
2021/07/24 06:23:03;;;;;;;1.33;1.27;;;22.70;99.90;;;;;;5091596;28;20668;-83
2021/07/24 06:25:28;;;;;;;3.40;1.20;;;22.80;99.90;;;;;;5087817;28;20208;-83
2021/07/24 06:27:54;;;;;;;1.07;1.07;;;22.80;99.90;;;;;;5096687;28;20747;-85
2021/07/24 06:30:19;;;;;;;4.50;2.70;;;22.60;99.90;;;;;;5097333;28;20302;-85
2021/07/24 06:32:45;;;;;;;1.13;1.13;;;22.30;99.90;;;;;;5088924;28;20242;-85
2021/07/24 06:35:10;;;;;;;2.50;1.57;;;22.20;99.90;;;;;;5087319;28;20225;-85
2021/07/24 06:37:36;;;;;;;2.33;1.80;;;22.00;99.90;;;;;;5090238;28;20212;-85
2021/07/24 06:40:02;;;;;;;1.17;0.77;;;22.30;99.90;;;;;;5080776;28;20201;-85
2021/07/24 06:42:28;;;;;;;1.63;1.53;;;22.40;99.90;;;;;;5078756;28;20633;-86
2021/07/24 06:44:53;;;;;;;1.00;0.80;;;22.10;99.90;;;;;;5097603;28;20216;-85
2021/07/24 06:47:20;;;;;;;1.80;1.63;;;22.20;99.90;;;;;;5092716;28;20570;-85
2021/07/24 06:49:45;;;;;;;2.77;1.90;;;22.20;99.90;;;;;;5095110;28;20209;-85
2021/07/24 06:52:11;;;;;;;1.30;1.17;;;22.20;99.90;;;;;;5090741;28;20226;-85
2021/07/24 06:54:36;;;;;;;1.73;1.63;;;22.60;99.90;;;;;;5099323;28;20266;-85
2021/07/24 06:57:02;;;;;;;1.93;1.83;;;22.60;99.90;;;;;;5089001;28;20326;-85
2021/07/24 06:59:28;;;;;;;1.40;1.10;;;22.80;99.90;;;;;;5079859;28;20687;-86
2021/07/24 07:01:53;;;;;;;1.73;1.60;;;22.80;99.90;;;;;;5081636;28;20585;-83
2021/07/24 07:04:19;;;;;;;2.57;1.87;;;22.60;99.90;;;;;;5102361;28;20208;-83
2021/07/24 07:06:44;;;;;;;2.60;1.60;;;23.00;99.90;;;;;;5086736;28;20256;-86
2021/07/24 07:09:10;;;;;;;2.20;1.33;;;22.90;99.90;;;;;;5091503;28;20322;-88
2021/07/24 07:11:35;;;;;;;3.70;1.50;;;23.20;99.90;;;;;;5091332;28;20184;-87
2021/07/24 07:14:01;;;;;;;2.07;1.37;;;23.40;99.90;;;;;;5101751;28;20199;-87
2021/07/24 07:16:27;;;;;;;1.33;1.23;;;23.70;99.90;;;;;;5099100;28;20191;-87
2021/07/24 07:18:52;;;;;;;2.37;1.07;;;23.50;99.90;;;;;;5102112;28;20205;-87
2021/07/24 07:21:18;;;;;;;2.20;1.77;;;23.40;99.90;;;;;;5086224;28;20290;-87
2021/07/24 07:23:43;;;;;;;3.97;1.57;;;23.30;99.90;;;;;;5088455;28;20607;-87
2021/07/24 07:26:12;;;;;;;2.83;1.30;;;23.60;99.90;;;;;;5091652;28;20226;-87
2021/07/24 07:28:37;;;;;;;2.00;1.30;;;23.70;99.90;;;;;;5099381;28;20240;-87
2021/07/24 07:31:03;;;;;;;1.63;1.00;;;23.70;99.90;;;;;;5104886;28;20215;-87
2021/07/24 07:33:28;;;;;;;1.40;1.30;;;23.60;99.90;;;;;;5099472;28;20747;-87
2021/07/24 07:35:54;;;;;;;1.80;0.97;;;23.30;99.90;;;;;;5097004;28;20563;-87
2021/07/24 07:38:19;;;;;;;1.87;1.47;;;23.60;99.90;;;;;;5095553;28;20189;-87
2021/07/24 07:40:45;;;;;;;1.70;1.07;;;23.90;99.90;;;;;;5103235;28;20187;-88
2021/07/24 07:43:11;;;;;;;0.80;0.80;;;24.10;99.90;;;;;;5104683;28;20176;-87
2021/07/24 07:45:37;;;;;;;1.73;1.63;;;24.50;99.90;;;;;;5093980;28;20235;-87
2021/07/24 07:48:04;;;;;;;1.07;0.87;;;24.70;99.90;;;;;;5107703;28;20180;-87
2021/07/24 07:50:33;;;;;;;3.67;3.00;;;24.90;99.90;;;;;;5094081;28;20207;-87
2021/07/24 07:52:59;;;;;;;3.23;1.67;;;24.70;99.90;;;;;;5090803;28;20183;-87
2021/07/24 07:55:25;;;;;;;3.60;1.30;;;24.50;99.90;;;;;;5090935;28;20180;-87
2021/07/24 07:57:51;;;;;;;2.27;1.43;;;25.00;99.90;;;;;;5100059;28;20268;-87
2021/07/24 08:00:17;;;;;;;1.67;1.37;;;25.20;99.90;;;;;;5090930;28;20208;-87
2021/07/24 08:02:42;;;;;;;3.70;1.40;;;25.30;99.90;;;;;;5099161;28;20187;-87
2021/07/24 08:05:08;;;;;;;1.43;0.77;;;25.60;99.90;;;;;;5085473;28;20208;-87
2021/07/24 08:07:34;;;;;;;1.70;1.00;;;25.70;99.90;;;;;;5092717;28;20180;-89
2021/07/24 08:09:59;;;;;;;1.97;1.50;;;25.80;99.90;;;;;;5081090;28;20239;-88
2021/07/24 08:12:25;;;;;;;7.67;1.50;;;25.30;99.90;;;;;;5078129;28;20176;-87
2021/07/24 08:14:51;;;;;;;2.00;1.77;;;25.40;99.90;;;;;;5090181;28;20194;-87
2021/07/24 08:17:19;;;;;;;1.63;1.20;;;25.30;99.90;;;;;;5104188;28;20275;-88
2021/07/24 08:19:45;;;;;;;2.20;1.40;;;25.10;99.90;;;;;;5082150;28;20226;-85
2021/07/24 08:22:10;;;;;;;2.37;1.37;;;25.00;99.90;;;;;;5065866;28;20192;-87
2021/07/24 08:24:36;;;;;;;3.07;1.60;;;25.20;99.90;;;;;;5066187;28;20628;-87
2021/07/24 08:27:02;;;;;;;1.40;1.30;;;24.60;99.90;;;;;;5064043;28;20184;-87
2021/07/24 08:29:27;;;;;;;2.67;1.17;;;25.00;99.90;;;;;;5069203;28;20716;-87
2021/07/24 08:31:53;;;;;;;1.37;1.10;;;25.20;99.90;;;;;;5081747;28;20180;-86
2021/07/24 08:34:18;;;;;;;3.13;1.77;;;25.30;99.90;;;;;;5091242;28;20215;-86
2021/07/24 08:36:44;;;;;;;4.90;1.30;;;25.40;99.90;;;;;;5078362;28;20185;-86
2021/07/24 08:39:10;;;;;;;1.37;1.17;;;25.60;99.90;;;;;;5098060;28;20215;-85
2021/07/24 08:41:41;;;;;;;1.37;0.90;;;25.70;99.90;;;;;;5094767;28;20197;-86
2021/07/24 08:44:09;;;;;;;1.40;1.30;;;25.90;99.90;;;;;;5094075;28;20351;-85
2021/07/24 08:46:34;;;;;;;1.67;1.33;;;26.00;99.90;;;;;;5100507;28;20595;-87
2021/07/24 08:49:00;;;;;;;1.77;1.20;;;26.00;99.90;;;;;;5078548;28;20253;-86
2021/07/24 08:51:30;;;;;;;1.90;1.17;;;26.00;99.90;;;;;;5105869;28;20216;-86
2021/07/24 08:53:56;;;;;;;1.00;0.80;;;26.00;99.90;;;;;;5069706;28;20216;-86
2021/07/24 08:56:26;;;;;;;1.23;1.13;;;25.90;99.90;;;;;;5084900;28;20196;-86
2021/07/24 08:58:56;;;;;;;1.43;1.33;;;25.90;99.90;;;;;;5079271;27;20211;-86
2021/07/24 09:01:22;;;;;;;2.00;1.50;;;26.00;99.90;;;;;;5077385;28;20268;-86
2021/07/24 09:03:48;;;;;;;1.47;1.37;;;25.80;99.90;;;;;;5091626;28;20688;-87
2021/07/24 09:06:22;;;;;;;1.87;1.33;;;26.00;99.90;;;;;;5085710;28;20214;-86
2021/07/24 09:08:57;;;;;;;3.97;1.10;;;26.00;99.90;;;;;;5067774;28;20209;-86
2021/07/24 09:11:23;;;;;;;3.73;1.87;;;25.90;99.90;;;;;;5083613;27;20202;-87
2021/07/24 09:13:48;;;;;;;1.30;1.20;;;25.20;99.90;;;;;;5068603;28;20184;-86
2021/07/24 09:16:15;;;;;;;1.73;1.43;;;25.00;99.90;;;;;;5069386;28;20191;-85
2021/07/24 09:18:42;;;;;;;1.83;1.70;;;25.30;99.90;;;;;;5089176;28;20295;-86
2021/07/24 09:21:07;;;;;;;1.77;1.67;;;25.70;99.90;;;;;;5106539;28;20184;-87
2021/07/24 09:23:36;;;;;;;2.50;2.30;;;25.10;99.90;;;;;;5094459;28;20292;-85
2021/07/24 09:26:05;;;;;;;2.00;1.90;;;24.70;99.90;;;;;;5083498;28;20665;-85
2021/07/24 09:28:32;;;;;;;2.23;1.80;;;24.60;99.90;;;;;;5083457;28;20189;-86
2021/07/24 09:30:58;;;;;;;2.07;1.63;;;24.60;99.90;;;;;;5089199;28;20184;-85
2021/07/24 09:33:24;;;;;;;2.60;1.87;;;24.40;99.90;;;;;;5089926;28;20191;-86
2021/07/24 09:35:54;;;;;;;1.33;1.23;;;24.10;99.90;;;;;;5080220;28;20184;-86
2021/07/24 09:38:33;;;;;;;2.00;1.20;;;24.00;99.90;;;;;;5081432;28;20870;-87
2021/07/24 09:41:01;;;;;;;1.03;0.83;;;24.10;99.90;;;;;;5088512;28;20233;-85
2021/07/24 09:43:36;;;;;;;2.10;1.10;;;24.30;99.90;;;;;;5089227;28;20188;-86
2021/07/24 09:46:08;;;;;;;1.60;1.50;;;24.60;99.90;;;;;;5083243;28;20333;-86
2021/07/24 09:48:33;;;;;;;1.10;1.00;;;24.90;99.90;;;;;;5091831;28;20672;-86
2021/07/24 09:50:59;;;;;;;1.83;0.97;;;25.10;99.90;;;;;;5081970;28;20267;-86
2021/07/24 09:53:44;;;;;;;2.63;2.17;;;25.10;99.90;;;;;;5089066;28;20226;-86
2021/07/24 09:56:14;;;;;;;0.83;0.83;;;25.20;99.90;;;;;;5093530;28;20208;-85
2021/07/24 09:58:40;;;;;;;5.93;1.77;;;25.30;99.90;;;;;;5089949;28;20201;-85
2021/07/24 10:01:08;;;;;;;1.50;1.40;;;25.70;99.90;;;;;;5095020;28;20195;-86
2021/07/24 10:03:36;;;;;;;3.23;2.20;;;26.00;99.90;;;;;;5094631;28;20268;-86
2021/07/24 10:06:12;;;;;;;3.03;1.40;;;26.40;99.90;;;;;;5095752;28;20595;-86
2021/07/24 10:08:40;;;;;;;1.47;1.07;;;26.50;99.90;;;;;;5094384;28;20206;-85
2021/07/24 10:11:07;;;;;;;2.90;1.43;;;26.90;99.90;;;;;;5092794;28;20181;-86
2021/07/24 10:13:33;;;;;;;2.47;1.57;;;26.90;99.90;;;;;;5100535;28;20535;-86
2021/07/24 10:15:59;;;;;;;1.67;1.53;;;26.80;99.90;;;;;;5103019;28;21443;-87
2021/07/24 10:18:26;;;;;;;1.90;1.57;;;26.90;99.90;;;;;;5084114;28;20185;-86
2021/07/24 10:20:52;;;;;;;2.57;1.57;;;26.90;99.90;;;;;;5090696;28;20188;-86
2021/07/24 10:23:21;;;;;;;1.67;1.57;;;26.70;99.90;;;;;;5085888;28;20324;-86
2021/07/24 10:26:09;;;;;;;2.10;1.50;;;26.70;99.90;;;;;;5105712;28;20208;-86
2021/07/24 10:28:54;;;;;;;2.00;1.50;;;26.90;99.90;;;;;;5086916;28;20585;-86
2021/07/24 10:31:33;;;;;;;1.57;1.43;;;27.10;99.90;;;;;;5104186;28;20179;-86
2021/07/24 10:34:01;;;;;;;2.13;1.60;;;27.70;99.90;;;;;;5102764;27;20181;-86
2021/07/24 10:36:53;;;;;;;2.43;0.90;;;28.00;99.90;;;;;;5085852;28;20189;-86
2021/07/24 10:39:21;;;;;;;2.33;1.87;;;28.40;99.90;;;;;;5089803;28;20212;-86
2021/07/24 10:42:07;;;;;;;2.70;1.60;;;28.40;99.90;;;;;;5104089;28;20180;-86
2021/07/24 10:44:43;;;;;;;1.90;1.73;;;28.10;99.90;;;;;;5086010;28;20602;-85
2021/07/24 10:47:14;;;;;;;3.57;1.57;;;28.50;99.90;;;;;;5088817;28;20263;-86
2021/07/24 10:49:46;;;;;;;1.50;1.40;;;28.20;99.90;;;;;;5106616;28;20197;-86
2021/07/24 10:52:11;;;;;;;1.60;1.50;;;27.90;99.90;;;;;;5081923;28;20263;-86
2021/07/24 10:55:00;;;;;;;1.23;1.10;;;27.90;99.90;;;;;;5099417;28;20302;-86
2021/07/24 10:57:59;;;;;;;1.67;0.93;;;28.10;99.90;;;;;;5070192;28;20301;-87
2021/07/24 11:00:40;;;;;;;0.95;0.95;;;28.00;99.90;;;;;;5078914;28;20219;-86
2021/07/24 11:03:46;;;;;;;2.78;1.15;;;28.10;99.90;;;;;;5085818;28;20196;-86
2021/07/24 11:06:30;;;;;;;1.60;1.50;;;28.30;99.90;;;;;;5081606;28;20184;-86
2021/07/24 11:09:00;;;;;;;1.65;1.35;;;28.40;99.90;;;;;;5085460;28;20269;-86
2021/07/24 11:11:36;;;;;;;1.30;1.23;;;28.30;99.90;;;;;;5086546;28;20236;-86
2021/07/24 11:14:01;;;;;;;2.65;1.92;;;28.10;99.90;;;;;;5088177;28;20267;-86
2021/07/24 11:17:08;;;;;;;2.13;1.47;;;28.10;99.90;;;;;;5092836;28;20270;-86
2021/07/24 11:19:39;;;;;;;1.23;1.13;;;28.30;99.90;;;;;;5090345;28;20207;-86
2021/07/24 11:22:14;;;;;;;3.93;1.70;;;28.40;99.90;;;;;;5086322;28;20184;-85
2021/07/24 11:25:04;;;;;;;1.13;1.10;;;28.50;99.90;;;;;;5095191;28;20210;-85
2021/07/24 11:27:35;;;;;;;0.85;0.85;;;28.60;99.90;;;;;;5088817;28;20184;-86
2021/07/24 11:30:10;;;;;;;2.10;1.87;;;28.10;99.90;;;;;;5090103;28;20289;-88
2021/07/24 11:32:40;;;;;;;2.03;1.93;;;27.50;99.90;;;;;;5087879;28;20172;-88
2021/07/24 11:35:09;;;;;;;1.97;1.77;;;26.80;99.90;;;;;;5079334;28;20726;-87
2021/07/24 11:37:37;;;;;;;2.87;1.87;;;26.70;99.90;;;;;;5089477;28;20242;-88
2021/07/24 11:40:07;;;;;;;1.63;1.50;;;26.30;99.90;;;;;;5081149;28;20207;-86
2021/07/24 11:42:34;;;;;;;1.60;1.50;;;25.80;99.90;;;;;;5096384;28;20317;-87
2021/07/24 11:44:59;;;;;;;1.63;1.20;;;25.80;99.90;;;;;;5093702;28;20196;-87
2021/07/24 11:47:25;;;;;;;3.90;2.00;;;25.70;99.90;;;;;;5090673;28;20259;-88
2021/07/24 11:49:51;;;;;;;3.77;1.10;;;25.80;99.90;;;;;;5102713;28;20283;-88
2021/07/24 11:52:23;;;;;;;1.50;0.97;;;26.10;99.90;;;;;;5090577;28;20622;-88
2021/07/24 11:54:51;;;;;;;2.93;1.77;;;26.30;99.90;;;;;;5104875;28;20644;-87
2021/07/24 11:57:27;;;;;;;1.50;1.40;;;26.40;99.90;;;;;;5076718;28;20191;-86
2021/07/24 11:59:53;;;;;;;6.40;1.40;;;26.40;99.90;;;;;;5100567;28;20199;-87
2021/07/24 12:02:19;;;;;;;2.97;1.00;;;26.30;99.90;;;;;;5083176;28;20184;-88
2021/07/24 12:04:50;;;;;;;2.50;1.47;;;26.10;99.90;;;;;;5089033;28;20280;-87
2021/07/24 12:07:18;;;;;;;1.73;0.90;;;26.10;99.90;;;;;;5090841;28;20192;-87
2021/07/24 12:09:44;;;;;;;1.50;1.07;;;25.90;99.90;;;;;;5104040;28;20196;-88
2021/07/24 12:12:10;;;;;;;0.67;0.67;;;25.70;99.90;;;;;;5101953;28;20276;-87
2021/07/24 12:14:36;;;;;;;2.00;1.33;;;25.60;99.90;;;;;;5071141;28;20177;-88
2021/07/24 12:17:07;;;;;;;3.10;1.60;;;25.60;99.90;;;;;;5093597;28;20192;-87
2021/07/24 12:19:40;;;;;;;2.37;2.00;;;25.20;99.90;;;;;;5095271;28;20208;-88
2021/07/24 12:22:18;;;;;;;3.07;2.00;;;24.80;99.90;;;;;;5088616;28;20280;-88
2021/07/24 12:24:47;;;;;;;4.67;1.50;;;23.80;99.90;;;;;;5089713;28;20200;-87
2021/07/24 12:27:15;;;;;;;2.70;1.90;;;22.90;99.90;;;;;;5100291;28;20180;-87
2021/07/24 12:29:58;;;;;;;1.43;1.27;;;22.20;99.90;;;;;;5104691;28;20258;-87
2021/07/24 12:32:37;;;;;;;3.37;2.13;;;21.90;99.90;;;;;;5095125;28;20275;-88
2021/07/24 12:35:21;;;;;;;1.53;1.40;;;21.80;99.90;;;;;;5100338;28;20197;-87
2021/07/24 12:38:01;;;;;;;1.87;1.63;;;21.70;99.90;;;;;;5095661;28;20191;-87
2021/07/24 12:40:28;;;;;;;2.50;1.53;;;21.70;99.90;;;;;;5089727;28;20204;-87
2021/07/24 12:42:53;;;;;;;1.97;1.80;;;21.60;99.90;;;;;;5105964;28;20192;-87
2021/07/24 12:45:30;;;;;;;1.60;0.80;;;21.80;99.90;;;;;;5092744;28;20273;-87
2021/07/24 12:48:04;;;;;;;1.13;0.80;;;21.80;99.90;;;;;;5097980;28;20241;-86
2021/07/24 12:50:29;;;;;;;2.27;1.67;;;21.90;99.90;;;;;;5103388;28;20668;-87
2021/07/24 12:52:56;;;;;;;1.17;1.17;;;22.00;99.90;;;;;;5088008;28;20183;-87
2021/07/24 12:55:23;;;;;;;1.70;1.60;;;22.10;99.90;;;;;;5097294;28;20643;-87
2021/07/24 12:57:49;;;;;;;3.27;1.73;;;22.20;99.90;;;;;;5091418;28;20683;-87